Overview Statistics Trail Chart Weather Telemetry Raw packets
 

This is the latest recevied telemetry packets stored in our database for station/object OE3WFA-12. If no packets are shown the sender has not sent any telemetry packets the latest 10 day(s).

Telemetry packets is used to share measurements like repeteater parameters, battery voltage, radiation readings (or any other measurements).

<< 1 2 3 4 >>
Time Press* Temp.in* Hum* QNH* Temp.out*
1788707038 988.5 hPa 28.2 C deg 23.3 % 1026.9 hPa 0 C deg
1788705207 988.5 hPa 28.2 C deg 23.6 % 1026.9 hPa 0 C deg
1788703377 988.8 hPa 28.2 C deg 23.7 % 1027.2 hPa 0 C deg
1788701547 988.9 hPa 28.1 C deg 23.8 % 1027.3 hPa 0 C deg
1788699717 989.2 hPa 28.1 C deg 24.2 % 1027.6 hPa 0 C deg
1788697887 989.2 hPa 27.9 C deg 24.2 % 1027.7 hPa 0 C deg
1788696057 989.3 hPa 27.8 C deg 23.9 % 1027.7 hPa 0 C deg
1788694231 989.5 hPa 27.8 C deg 23.4 % 1028 hPa 0 C deg
1788692397 989.6 hPa 27.9 C deg 23.4 % 1028.1 hPa 0 C deg
1788690566 989.8 hPa 27.9 C deg 23.7 % 1028.3 hPa 0 C deg
1788688736 990.1 hPa 27.9 C deg 24 % 1028.6 hPa 0 C deg
1788686906 990.4 hPa 27.9 C deg 24.1 % 1028.9 hPa 0 C deg
1788685076 990.4 hPa 28 C deg 24 % 1028.9 hPa 0 C deg
1788683246 990.5 hPa 27.9 C deg 24.9 % 1029 hPa 0 C deg
1788681416 990.6 hPa 27.6 C deg 25.1 % 1029.1 hPa 0 C deg
1788679609 990.4 hPa 27.4 C deg 24.7 % 1029 hPa 0 C deg
1788677756 990.1 hPa 27.1 C deg 25.2 % 1028.7 hPa 0 C deg
1788675925 990.1 hPa 26.6 C deg 25.4 % 1028.7 hPa 0 C deg
1788674095 989.9 hPa 26.2 C deg 25.3 % 1028.6 hPa 0 C deg
1788672265 989.5 hPa 25.9 C deg 25.1 % 1028.2 hPa 0 C deg
1788670435 989.4 hPa 26 C deg 24.9 % 1028.1 hPa 0 C deg
1788668605 989.3 hPa 26.2 C deg 24.8 % 1027.9 hPa 0 C deg
1788666775 988.9 hPa 26.5 C deg 24.8 % 1027.6 hPa 0 C deg
1788664945 988.8 hPa 26.6 C deg 24.9 % 1027.5 hPa 0 C deg
1788663114 988.6 hPa 26.9 C deg 24.6 % 1027.2 hPa 0 C deg
*Used Equation Coefficients:
Press: 0, 1, 0
Temp.in: 0, 1, 0
Hum: 0, 1, 0
QNH: 0, 1, 0
Temp.out: 0, 1, 0

  • The parameter names for the analog channels will be Value1, Value2, Value3 (up to Value5) if station has not sent a PARAM-packet that specifies the parameter names for each analog channel.
  • Each analog value is a decimal number between 000 and 255 (according to APRS specifications). The receiver use the telemetry equation coefficientsto to restore the original sensor values. If no EQNS-packet with equation coefficients is sent we will show the values as is (this corresponds to the equation coefficients a=0, b=1 and c=0).
    The sent equation coefficients is used in the equation: a * value2 + b * value + c.
  • The units for the analog values will not be shown if station has not sent a UNIT-packet specifying what unit's to use.
  • The parameter names for the digital bits will be Bit1, Bit2, Bit3 (up to Bit8) if station has not sent a PARAM-packet that specifies the parameter names for each digital bit.
  • All bit labels will be named "On" if station has not sent a UNIT-packet that specifies the label of each bit.
  • A bit is considered to be On when the bit is 1 if station has not sent a BITS-packet that specifies another "Bit sense" (a BITS-packet specify the state of the bits that match the BIT labels)